Disclaimer

Please do not use the information listed here in-flight or in-navigation, as they are not provided to us by the airports but are provided by volunteers, so they might be outdated.

Search


Regions


Airport information page

Radio informations:
Tower (TWR) - 118.8 MHz

Airport informations:
Latitude: 58° 24' 22.14" N
Longitude: 015° 40' 49.83" E
Elevation: 172 feet - 52 meters
Operating hours: Remarks
Operating agency: Civil government, landing fees and diplomatic clearance may be required
Timezone: UTC+1(+2DT) - Last Sunday in March to last Sunday in October
Fuel: Jet A1, without icing nhibitor.

100/130 MIL Spec, low lead, aviation gasoline (BLUE)

Runway information:
11/29 - 6989 x 131 feet< - >2130 x 40 meters

Recent METARs:
ESSL 192050Z 06007KT 040V100 9999 FEW009 BKN012 02/00 Q1036
ESSL 192120Z 07006KT 040V100 9999 BKN011 02/00 Q1036
ESSL 192150Z 06006KT 040V100 9999 BKN010 01/00 Q1036

Airport on the map: